Time;durP1;ratioP1;P1;durP2;ratioP2;P2;SDS_P1;SDS_P2;PMS_P1;PMS_P2;Temp;Humidity;BMP_temperature;BMP_pressure;BME280_temperature;BME280_humidity;BME280_pressure;Samples;Min_cycle;Max_cycle;Signal;HPM_P1;HPM_P2
2023/10/31 00:01:40;;;;;;;1.20;0.55;;;;;;;;;;5033515;28;20484;-70
2023/10/31 00:04:07;;;;;;;0.30;0.30;;;;;;;;;;5036868;28;20468;-72
2023/10/31 00:06:35;;;;;;;0.30;0.30;;;;;;;;;;5049144;28;20437;-70
2023/10/31 00:09:02;;;;;;;0.70;0.32;;;;;;;;;;5035994;28;20429;-71
2023/10/31 00:11:29;;;;;;;0.65;0.45;;;;;;;;;;5039914;28;20609;-70
2023/10/31 00:13:56;;;;;;;0.50;0.30;;;;;;;;;;5039118;28;20725;-70
2023/10/31 00:16:24;;;;;;;1.05;0.30;;;;;;;;;;5039778;28;20445;-70
2023/10/31 00:18:51;;;;;;;0.30;0.30;;;;;;;;;;5043700;28;20441;-70
2023/10/31 00:21:19;;;;;;;1.25;0.30;;;;;;;;;;5046592;28;20929;-70
2023/10/31 00:23:47;;;;;;;0.35;0.35;;;;;;;;;;5038677;28;20840;-70
2023/10/31 00:26:15;;;;;;;0.80;0.30;;;;;;;;;;5029952;28;20430;-70
2023/10/31 00:28:42;;;;;;;0.30;0.30;;;;;;;;;;5037744;28;20837;-70
2023/10/31 00:31:14;;;;;;;0.35;0.35;;;;;;;;;;5039426;28;20831;-71
2023/10/31 00:33:41;;;;;;;0.22;0.22;;;;;;;;;;5037198;28;20535;-71
2023/10/31 00:36:08;;;;;;;0.45;0.30;;;;;;;;;;5040936;28;20950;-70
2023/10/31 00:38:39;;;;;;;0.40;0.40;;;;;;;;;;5038087;28;20579;-71
2023/10/31 00:41:06;;;;;;;0.28;0.28;;;;;;;;;;5034687;28;20537;-71
2023/10/31 00:43:33;;;;;;;0.40;0.40;;;;;;;;;;5035818;28;20456;-70
2023/10/31 00:46:00;;;;;;;0.30;0.30;;;;;;;;;;5042881;28;21015;-70
2023/10/31 00:48:27;;;;;;;0.38;0.38;;;;;;;;;;5033841;28;20536;-70
2023/10/31 00:50:54;;;;;;;0.20;0.20;;;;;;;;;;5036258;28;20432;-71
2023/10/31 00:53:27;;;;;;;0.50;0.30;;;;;;;;;;5043363;28;20468;-70
2023/10/31 00:55:54;;;;;;;0.40;0.40;;;;;;;;;;5036774;28;20515;-70
2023/10/31 00:58:22;;;;;;;0.22;0.22;;;;;;;;;;5041332;28;20455;-70
2023/10/31 01:00:49;;;;;;;1.10;0.30;;;;;;;;;;5040650;28;20435;-70
2023/10/31 01:03:16;;;;;;;0.80;0.40;;;;;;;;;;5044725;28;20437;-70
2023/10/31 01:05:43;;;;;;;0.68;0.30;;;;;;;;;;5042503;28;20508;-70
2023/10/31 01:08:10;;;;;;;0.40;0.40;;;;;;;;;;5042092;28;20453;-70
2023/10/31 01:10:37;;;;;;;0.32;0.32;;;;;;;;;;5041088;28;20435;-71
2023/10/31 01:13:05;;;;;;;0.37;0.37;;;;;;;;;;5037515;28;20482;-71
2023/10/31 01:15:32;;;;;;;0.35;0.35;;;;;;;;;;5043057;28;20425;-71
2023/10/31 01:17:59;;;;;;;1.05;0.40;;;;;;;;;;5036030;28;20538;-70
2023/10/31 01:20:26;;;;;;;1.25;0.32;;;;;;;;;;5034718;28;20434;-70
2023/10/31 01:22:53;;;;;;;0.40;0.40;;;;;;;;;;5036596;28;20917;-70
2023/10/31 01:25:21;;;;;;;1.50;0.35;;;;;;;;;;5033688;28;20461;-70
2023/10/31 01:27:54;;;;;;;0.30;0.30;;;;;;;;;;5042686;28;20591;-70
2023/10/31 01:30:21;;;;;;;0.20;0.20;;;;;;;;;;5038764;28;20512;-70
2023/10/31 01:32:48;;;;;;;0.40;0.40;;;;;;;;;;5039273;28;20421;-70
2023/10/31 01:35:17;;;;;;;1.50;0.32;;;;;;;;;;5040829;28;20434;-70
2023/10/31 01:37:47;;;;;;;0.30;0.30;;;;;;;;;;5027045;28;20442;-69
2023/10/31 01:40:15;;;;;;;0.57;0.55;;;;;;;;;;5039485;28;20444;-70
2023/10/31 01:42:42;;;;;;;0.32;0.32;;;;;;;;;;5038205;28;20523;-70
2023/10/31 01:45:09;;;;;;;0.95;0.40;;;;;;;;;;5037543;28;20437;-69
2023/10/31 01:47:36;;;;;;;0.95;0.40;;;;;;;;;;5039133;28;21163;-70
2023/10/31 01:50:04;;;;;;;2.10;0.50;;;;;;;;;;5040081;28;20435;-70
2023/10/31 01:52:32;;;;;;;0.68;0.68;;;;;;;;;;5030238;28;20427;-69
2023/10/31 01:55:00;;;;;;;1.60;0.43;;;;;;;;;;5055241;28;20487;-69
2023/10/31 01:57:31;;;;;;;1.20;0.50;;;;;;;;;;5042437;28;20464;-69
2023/10/31 01:59:58;;;;;;;2.05;0.55;;;;;;;;;;5039604;28;20449;-70
2023/10/31 02:02:26;;;;;;;0.40;0.40;;;;;;;;;;5038369;28;20440;-70
2023/10/31 02:04:53;;;;;;;0.30;0.30;;;;;;;;;;5042155;28;20474;-69
2023/10/31 02:07:20;;;;;;;0.45;0.45;;;;;;;;;;5042387;28;20441;-70
2023/10/31 02:09:47;;;;;;;1.90;0.40;;;;;;;;;;5037121;28;20433;-69
2023/10/31 02:12:33;;;;;;;0.80;0.30;;;;;;;;;;5036218;28;20434;-70
2023/10/31 02:15:01;;;;;;;0.55;0.40;;;;;;;;;;5035912;28;21083;-70
2023/10/31 02:17:28;;;;;;;0.40;0.40;;;;;;;;;;5043223;28;20483;-70
2023/10/31 02:19:58;;;;;;;0.70;0.30;;;;;;;;;;5036190;28;20439;-69
2023/10/31 02:22:25;;;;;;;1.08;0.40;;;;;;;;;;5036063;28;20429;-70
2023/10/31 02:24:52;;;;;;;0.80;0.50;;;;;;;;;;5035162;28;20485;-71
2023/10/31 02:27:28;;;;;;;0.40;0.40;;;;;;;;;;5033482;28;20453;-70
2023/10/31 02:29:58;;;;;;;0.47;0.47;;;;;;;;;;5042958;28;20791;-70
2023/10/31 02:32:25;;;;;;;1.40;0.50;;;;;;;;;;5035808;28;22139;-70
2023/10/31 02:34:53;;;;;;;2.40;0.47;;;;;;;;;;5044074;28;20427;-70
2023/10/31 02:37:23;;;;;;;2.15;0.40;;;;;;;;;;5031513;28;20433;-69
2023/10/31 02:39:52;;;;;;;1.08;0.40;;;;;;;;;;5041789;28;20434;-69
2023/10/31 02:42:19;;;;;;;1.27;0.30;;;;;;;;;;5037260;28;20436;-69
2023/10/31 02:44:46;;;;;;;1.23;0.47;;;;;;;;;;5043373;28;20456;-69
2023/10/31 02:47:14;;;;;;;3.20;0.52;;;;;;;;;;5041224;28;20433;-70
2023/10/31 02:49:41;;;;;;;0.60;0.38;;;;;;;;;;5037588;28;20477;-70
2023/10/31 02:52:08;;;;;;;1.70;0.50;;;;;;;;;;5041765;28;20934;-69
2023/10/31 02:54:36;;;;;;;1.10;0.50;;;;;;;;;;5038557;28;20440;-69
2023/10/31 02:57:06;;;;;;;0.40;0.40;;;;;;;;;;5043277;28;20429;-70
2023/10/31 02:59:33;;;;;;;1.20;0.50;;;;;;;;;;5042501;28;20512;-70
2023/10/31 03:02:00;;;;;;;0.40;0.40;;;;;;;;;;5043239;28;20430;-70
2023/10/31 03:04:27;;;;;;;1.50;0.40;;;;;;;;;;5044086;28;20515;-69
2023/10/31 03:06:55;;;;;;;0.73;0.40;;;;;;;;;;5034908;28;20427;-69
2023/10/31 03:09:25;;;;;;;0.53;0.40;;;;;;;;;;5041066;28;20421;-70
2023/10/31 03:11:52;;;;;;;0.68;0.52;;;;;;;;;;5042012;28;20534;-70
2023/10/31 03:14:19;;;;;;;0.50;0.50;;;;;;;;;;5040012;28;21522;-69
2023/10/31 03:16:46;;;;;;;0.40;0.40;;;;;;;;;;5039180;28;20492;-69
2023/10/31 03:19:13;;;;;;;0.50;0.50;;;;;;;;;;5029998;28;20437;-69
2023/10/31 03:21:41;;;;;;;0.70;0.65;;;;;;;;;;5034220;28;20441;-70
2023/10/31 03:24:08;;;;;;;2.00;0.50;;;;;;;;;;5038964;28;20436;-71
2023/10/31 03:26:35;;;;;;;1.00;0.60;;;;;;;;;;5039446;28;21226;-70
2023/10/31 03:29:02;;;;;;;2.10;0.53;;;;;;;;;;5045252;28;20425;-71
2023/10/31 03:31:29;;;;;;;0.50;0.50;;;;;;;;;;5044780;28;20520;-71
2023/10/31 03:33:57;;;;;;;1.00;0.60;;;;;;;;;;5043794;28;20516;-71
2023/10/31 03:36:24;;;;;;;0.60;0.60;;;;;;;;;;5043430;28;20444;-71
2023/10/31 03:38:54;;;;;;;0.88;0.65;;;;;;;;;;5041265;28;20425;-70
2023/10/31 03:41:21;;;;;;;0.60;0.60;;;;;;;;;;5043693;28;20429;-71
2023/10/31 03:43:48;;;;;;;0.52;0.52;;;;;;;;;;5036671;28;20439;-71
2023/10/31 03:46:15;;;;;;;0.40;0.40;;;;;;;;;;5044989;28;20472;-70
2023/10/31 03:48:45;;;;;;;0.45;0.45;;;;;;;;;;5042979;28;20511;-70
2023/10/31 03:51:12;;;;;;;0.50;0.50;;;;;;;;;;5045533;28;20528;-70
2023/10/31 03:53:39;;;;;;;0.80;0.40;;;;;;;;;;5044315;28;20899;-71
2023/10/31 03:56:07;;;;;;;0.40;0.40;;;;;;;;;;5041519;28;20453;-71
2023/10/31 03:58:34;;;;;;;0.40;0.40;;;;;;;;;;5040755;28;20429;-71
2023/10/31 04:01:02;;;;;;;0.63;0.43;;;;;;;;;;5045446;28;20429;-71
2023/10/31 04:03:29;;;;;;;0.50;0.50;;;;;;;;;;5036034;28;20437;-71
2023/10/31 04:05:56;;;;;;;1.67;0.47;;;;;;;;;;5041195;28;20437;-69
2023/10/31 04:08:24;;;;;;;0.80;0.40;;;;;;;;;;5040898;28;20436;-69
2023/10/31 04:10:54;;;;;;;2.60;0.60;;;;;;;;;;5042414;28;20491;-68
2023/10/31 04:13:21;;;;;;;0.30;0.30;;;;;;;;;;5036795;28;21194;-69
2023/10/31 04:15:48;;;;;;;0.70;0.50;;;;;;;;;;5037096;28;20501;-69
2023/10/31 04:18:16;;;;;;;0.57;0.57;;;;;;;;;;5039116;28;20429;-69
2023/10/31 04:20:46;;;;;;;0.50;0.35;;;;;;;;;;5036954;28;20997;-69
2023/10/31 04:23:13;;;;;;;0.77;0.60;;;;;;;;;;5045989;28;20519;-69
2023/10/31 04:25:41;;;;;;;0.70;0.70;;;;;;;;;;5037447;28;20429;-69
2023/10/31 04:28:08;;;;;;;0.68;0.68;;;;;;;;;;5038282;28;20937;-69
2023/10/31 04:30:35;;;;;;;0.50;0.50;;;;;;;;;;5043369;28;21449;-69
2023/10/31 04:33:03;;;;;;;0.50;0.50;;;;;;;;;;5048503;28;20460;-69
2023/10/31 04:35:30;;;;;;;0.50;0.50;;;;;;;;;;5042830;28;20440;-69
2023/10/31 04:37:57;;;;;;;0.40;0.40;;;;;;;;;;5034044;28;20489;-69
2023/10/31 04:40:24;;;;;;;0.57;0.57;;;;;;;;;;5044584;28;20924;-69
2023/10/31 04:42:51;;;;;;;1.30;0.60;;;;;;;;;;5036739;28;20425;-69
2023/10/31 04:45:21;;;;;;;0.60;0.60;;;;;;;;;;5029823;28;20445;-69
2023/10/31 04:47:48;;;;;;;0.60;0.60;;;;;;;;;;5035182;28;20470;-69
2023/10/31 04:50:15;;;;;;;1.10;0.80;;;;;;;;;;5042976;28;20440;-69
2023/10/31 04:52:43;;;;;;;0.60;0.60;;;;;;;;;;5039855;28;20437;-69
2023/10/31 04:55:10;;;;;;;1.10;0.50;;;;;;;;;;5033375;28;20450;-69
2023/10/31 04:57:37;;;;;;;1.83;0.60;;;;;;;;;;5039372;28;20516;-69
2023/10/31 05:00:06;;;;;;;0.60;0.60;;;;;;;;;;5035983;28;20434;-69
2023/10/31 05:02:33;;;;;;;1.93;0.57;;;;;;;;;;5034969;28;20509;-68
2023/10/31 05:05:01;;;;;;;0.50;0.50;;;;;;;;;;5042285;28;20468;-69
2023/10/31 05:07:28;;;;;;;0.57;0.57;;;;;;;;;;5039937;28;20433;-69
2023/10/31 05:09:56;;;;;;;0.65;0.60;;;;;;;;;;5046862;28;20491;-69
2023/10/31 05:12:24;;;;;;;1.30;0.50;;;;;;;;;;5042206;28;20488;-69
2023/10/31 05:14:51;;;;;;;0.65;0.65;;;;;;;;;;5041128;28;20433;-69
2023/10/31 05:17:18;;;;;;;1.20;0.40;;;;;;;;;;5039875;28;20437;-69
2023/10/31 05:19:45;;;;;;;0.50;0.50;;;;;;;;;;5044536;28;20520;-69
2023/10/31 05:22:12;;;;;;;1.40;0.50;;;;;;;;;;5035194;28;20434;-70
2023/10/31 05:24:40;;;;;;;1.20;0.70;;;;;;;;;;5037683;28;20515;-69
2023/10/31 05:27:07;;;;;;;1.48;0.47;;;;;;;;;;5038247;28;20442;-71
2023/10/31 05:29:37;;;;;;;0.60;0.60;;;;;;;;;;5041058;28;20931;-70
2023/10/31 05:32:10;;;;;;;0.70;0.40;;;;;;;;;;5035045;28;21034;-70
2023/10/31 05:34:37;;;;;;;0.82;0.70;;;;;;;;;;5036630;28;20524;-70
2023/10/31 05:37:06;;;;;;;0.93;0.53;;;;;;;;;;5036558;28;20911;-69
2023/10/31 05:39:33;;;;;;;0.50;0.50;;;;;;;;;;5033194;28;20433;-70
2023/10/31 05:42:00;;;;;;;0.63;0.40;;;;;;;;;;5044019;28;20524;-71
2023/10/31 05:44:27;;;;;;;0.50;0.50;;;;;;;;;;5032488;28;21175;-70
2023/10/31 05:46:54;;;;;;;0.40;0.40;;;;;;;;;;5041401;28;20488;-70
2023/10/31 05:49:22;;;;;;;1.20;0.50;;;;;;;;;;5037838;28;20455;-70
2023/10/31 05:51:52;;;;;;;0.52;0.50;;;;;;;;;;5042641;28;20421;-70
2023/10/31 05:54:19;;;;;;;0.50;0.50;;;;;;;;;;5037699;28;20449;-70
2023/10/31 05:56:47;;;;;;;1.20;0.70;;;;;;;;;;5047597;28;20429;-70
2023/10/31 05:59:14;;;;;;;1.10;0.40;;;;;;;;;;5041679;28;20442;-70
2023/10/31 06:01:41;;;;;;;0.52;0.40;;;;;;;;;;5034121;28;20531;-72
2023/10/31 06:04:11;;;;;;;1.00;0.40;;;;;;;;;;5040979;28;20433;-69
2023/10/31 06:06:42;;;;;;;2.00;0.50;;;;;;;;;;5044386;28;20420;-69
2023/10/31 06:09:10;;;;;;;0.50;0.50;;;;;;;;;;5044079;28;20522;-70
2023/10/31 06:11:40;;;;;;;0.90;0.50;;;;;;;;;;5040724;28;20437;-70
2023/10/31 06:14:07;;;;;;;0.40;0.38;;;;;;;;;;5047860;28;20524;-69
2023/10/31 06:16:43;;;;;;;0.40;0.40;;;;;;;;;;5033066;28;20531;-69
2023/10/31 06:19:10;;;;;;;9.30;0.60;;;;;;;;;;5047593;28;20494;-69
2023/10/31 06:21:37;;;;;;;0.30;0.30;;;;;;;;;;5044016;28;20483;-69
2023/10/31 06:24:05;;;;;;;0.50;0.50;;;;;;;;;;5044501;28;20429;-69
2023/10/31 06:26:35;;;;;;;0.33;0.33;;;;;;;;;;5043228;28;20441;-69
2023/10/31 06:29:05;;;;;;;0.40;0.40;;;;;;;;;;5038304;28;20439;-70
2023/10/31 06:31:52;;;;;;;0.77;0.60;;;;;;;;;;5041038;28;20930;-70
2023/10/31 06:34:19;;;;;;;0.40;0.40;;;;;;;;;;5042526;28;20486;-70
2023/10/31 06:36:47;;;;;;;0.40;0.40;;;;;;;;;;5045321;28;20429;-70
2023/10/31 06:39:17;;;;;;;0.40;0.40;;;;;;;;;;5043522;28;20961;-70
2023/10/31 06:41:44;;;;;;;0.40;0.40;;;;;;;;;;5041567;28;20437;-70
2023/10/31 06:44:11;;;;;;;1.20;0.43;;;;;;;;;;5045359;28;20429;-70
2023/10/31 06:46:38;;;;;;;0.90;0.50;;;;;;;;;;5042817;28;20467;-69
2023/10/31 06:49:05;;;;;;;1.90;0.90;;;;;;;;;;5038993;28;21029;-70
2023/10/31 06:51:33;;;;;;;0.40;0.40;;;;;;;;;;5033841;28;20440;-69
2023/10/31 06:54:00;;;;;;;1.70;0.60;;;;;;;;;;5036746;28;20454;-70
2023/10/31 06:56:28;;;;;;;0.60;0.50;;;;;;;;;;5036591;28;20516;-70
2023/10/31 06:58:58;;;;;;;0.30;0.30;;;;;;;;;;5042858;28;20513;-70
2023/10/31 07:01:26;;;;;;;0.30;0.30;;;;;;;;;;5041431;28;20940;-70
2023/10/31 07:03:53;;;;;;;0.90;0.57;;;;;;;;;;5047449;28;21013;-69
2023/10/31 07:06:21;;;;;;;2.35;0.40;;;;;;;;;;5041696;28;20437;-70
2023/10/31 07:08:48;;;;;;;0.80;0.40;;;;;;;;;;5043694;28;20433;-69
2023/10/31 07:11:15;;;;;;;0.43;0.40;;;;;;;;;;5040897;28;20435;-69
2023/10/31 07:13:44;;;;;;;0.50;0.40;;;;;;;;;;5048875;28;20465;-70
2023/10/31 07:16:11;;;;;;;0.40;0.40;;;;;;;;;;5042364;28;20433;-70
2023/10/31 07:18:41;;;;;;;0.68;0.50;;;;;;;;;;5038431;28;20429;-70
2023/10/31 07:21:11;;;;;;;0.60;0.43;;;;;;;;;;5044685;28;20531;-70
2023/10/31 07:23:40;;;;;;;0.85;0.40;;;;;;;;;;5043656;28;20429;-70
2023/10/31 07:26:15;;;;;;;3.10;0.60;;;;;;;;;;5045146;28;20781;-69
2023/10/31 07:28:43;;;;;;;0.85;0.40;;;;;;;;;;5034026;28;20538;-70
2023/10/31 07:31:10;;;;;;;0.50;0.40;;;;;;;;;;5041369;28;20903;-70
2023/10/31 07:33:37;;;;;;;0.95;0.43;;;;;;;;;;5040609;28;20425;-70
2023/10/31 07:36:05;;;;;;;1.17;0.50;;;;;;;;;;5040038;28;20429;-70
2023/10/31 07:38:35;;;;;;;0.82;0.40;;;;;;;;;;5035483;28;20432;-70
2023/10/31 07:41:02;;;;;;;0.55;0.40;;;;;;;;;;5037672;28;20439;-70
2023/10/31 07:43:30;;;;;;;0.50;0.30;;;;;;;;;;5038628;28;20491;-70
2023/10/31 07:45:57;;;;;;;2.55;0.40;;;;;;;;;;5045609;28;20433;-70
2023/10/31 07:48:24;;;;;;;0.40;0.40;;;;;;;;;;5038481;28;20483;-69
2023/10/31 07:50:51;;;;;;;0.65;0.43;;;;;;;;;;5035782;28;20506;-71
2023/10/31 07:53:19;;;;;;;0.83;0.30;;;;;;;;;;5032696;28;20435;-71
2023/10/31 07:55:46;;;;;;;1.70;0.50;;;;;;;;;;5043665;28;20425;-70
2023/10/31 07:58:15;;;;;;;0.63;0.63;;;;;;;;;;5039808;28;20534;-70
2023/10/31 08:00:45;;;;;;;2.00;0.30;;;;;;;;;;5040321;28;20515;-70
2023/10/31 08:03:12;;;;;;;0.98;0.50;;;;;;;;;;5043567;28;20464;-65
2023/10/31 08:05:40;;;;;;;1.90;0.70;;;;;;;;;;5043349;28;20438;-65
2023/10/31 08:08:07;;;;;;;0.50;0.45;;;;;;;;;;5038153;28;20812;-67
2023/10/31 08:10:34;;;;;;;0.68;0.50;;;;;;;;;;5037738;28;20504;-66
2023/10/31 08:13:01;;;;;;;0.73;0.47;;;;;;;;;;5032000;28;20525;-67
2023/10/31 08:15:29;;;;;;;0.43;0.43;;;;;;;;;;5037665;28;20458;-67
2023/10/31 08:17:56;;;;;;;0.73;0.50;;;;;;;;;;5036783;28;20848;-68
2023/10/31 08:20:23;;;;;;;0.50;0.40;;;;;;;;;;5039402;28;20970;-70
2023/10/31 08:22:50;;;;;;;0.40;0.40;;;;;;;;;;5039019;28;20474;-66
2023/10/31 08:25:17;;;;;;;0.83;0.60;;;;;;;;;;5039413;28;20437;-67
2023/10/31 08:27:48;;;;;;;0.90;0.40;;;;;;;;;;5040826;28;20433;-67
2023/10/31 08:30:15;;;;;;;0.45;0.40;;;;;;;;;;5039713;28;20911;-66
2023/10/31 08:32:42;;;;;;;0.80;0.40;;;;;;;;;;5037826;28;20520;-68
2023/10/31 08:35:12;;;;;;;0.70;0.40;;;;;;;;;;5038552;28;20528;-67
2023/10/31 08:37:39;;;;;;;0.60;0.50;;;;;;;;;;5038095;28;20475;-67
2023/10/31 08:40:07;;;;;;;0.60;0.40;;;;;;;;;;5042098;28;20472;-65
2023/10/31 08:42:34;;;;;;;0.55;0.52;;;;;;;;;;5038997;28;20455;-67
2023/10/31 08:45:01;;;;;;;0.50;0.40;;;;;;;;;;5036781;28;20845;-67
2023/10/31 08:47:28;;;;;;;0.88;0.50;;;;;;;;;;5040307;28;20462;-67
2023/10/31 08:49:56;;;;;;;1.25;0.38;;;;;;;;;;5041556;28;20432;-66
2023/10/31 08:52:23;;;;;;;2.17;0.40;;;;;;;;;;5039929;28;20436;-69
2023/10/31 08:54:50;;;;;;;0.60;0.40;;;;;;;;;;5030763;28;20425;-69
2023/10/31 08:57:20;;;;;;;0.80;0.30;;;;;;;;;;5034786;28;20899;-68
2023/10/31 08:59:47;;;;;;;0.57;0.40;;;;;;;;;;5040337;28;20472;-69
2023/10/31 09:02:14;;;;;;;1.30;0.40;;;;;;;;;;5040392;28;20437;-69
2023/10/31 09:04:42;;;;;;;1.42;0.50;;;;;;;;;;5037838;28;20510;-69
2023/10/31 09:07:09;;;;;;;0.43;0.43;;;;;;;;;;5035209;28;20511;-69
2023/10/31 09:09:36;;;;;;;1.20;0.50;;;;;;;;;;5035171;28;20453;-69
2023/10/31 09:12:03;;;;;;;0.80;0.30;;;;;;;;;;5033936;28;21045;-70
2023/10/31 09:14:35;;;;;;;0.88;0.52;;;;;;;;;;5027791;28;20467;-69
2023/10/31 09:17:02;;;;;;;0.63;0.43;;;;;;;;;;5039197;28;20429;-69
2023/10/31 09:19:29;;;;;;;1.95;0.52;;;;;;;;;;5035538;28;20441;-69
2023/10/31 09:21:56;;;;;;;1.40;0.50;;;;;;;;;;5039805;28;20883;-69
2023/10/31 09:24:24;;;;;;;1.80;0.55;;;;;;;;;;5039686;28;20461;-69
2023/10/31 09:26:51;;;;;;;0.40;0.30;;;;;;;;;;5033844;28;20508;-63
2023/10/31 09:29:18;;;;;;;1.25;0.40;;;;;;;;;;5038746;28;21097;-64
2023/10/31 09:31:59;;;;;;;1.75;0.52;;;;;;;;;;5037335;28;20432;-65
2023/10/31 09:34:26;;;;;;;2.45;0.60;;;;;;;;;;5041696;28;20491;-65
2023/10/31 09:36:53;;;;;;;0.40;0.40;;;;;;;;;;5041251;28;20483;-65
2023/10/31 09:39:22;;;;;;;3.43;0.50;;;;;;;;;;5041020;28;20497;-64
2023/10/31 09:41:50;;;;;;;0.60;0.60;;;;;;;;;;5039575;28;20446;-65
2023/10/31 09:44:20;;;;;;;1.10;0.70;;;;;;;;;;5045537;28;20844;-64
2023/10/31 09:46:48;;;;;;;1.33;0.50;;;;;;;;;;5035109;28;20518;-64
2023/10/31 09:49:19;;;;;;;0.63;0.50;;;;;;;;;;5041959;28;21016;-64
2023/10/31 09:51:47;;;;;;;1.58;0.50;;;;;;;;;;5044286;28;20532;-64
2023/10/31 09:54:15;;;;;;;1.10;0.60;;;;;;;;;;5042476;28;20456;-65
2023/10/31 09:56:43;;;;;;;1.17;0.40;;;;;;;;;;5039489;28;20518;-65
2023/10/31 09:59:10;;;;;;;1.00;0.50;;;;;;;;;;5040938;28;20474;-64
2023/10/31 10:01:38;;;;;;;0.40;0.40;;;;;;;;;;5042500;28;20459;-64
2023/10/31 10:04:08;;;;;;;0.55;0.40;;;;;;;;;;5040655;28;20440;-64
2023/10/31 10:06:35;;;;;;;0.50;0.35;;;;;;;;;;5039646;28;20430;-64
2023/10/31 10:09:05;;;;;;;0.70;0.45;;;;;;;;;;5040903;28;20433;-64
2023/10/31 10:11:34;;;;;;;1.50;0.50;;;;;;;;;;5046527;28;20796;-64
2023/10/31 10:14:02;;;;;;;0.50;0.50;;;;;;;;;;5038064;28;20510;-69
2023/10/31 10:16:31;;;;;;;0.70;0.50;;;;;;;;;;5039245;28;20431;-69
2023/10/31 10:19:15;;;;;;;1.38;0.75;;;;;;;;;;5043270;28;20440;-69
2023/10/31 10:21:49;;;;;;;2.17;0.55;;;;;;;;;;5048717;28;20446;-68
2023/10/31 10:24:17;;;;;;;1.00;0.50;;;;;;;;;;5041620;28;20427;-69
2023/10/31 10:26:45;;;;;;;0.95;0.43;;;;;;;;;;5040979;28;20431;-70
2023/10/31 10:29:12;;;;;;;0.77;0.50;;;;;;;;;;5039822;28;20493;-69
2023/10/31 10:31:40;;;;;;;0.60;0.60;;;;;;;;;;5036971;28;20432;-70
2023/10/31 10:34:08;;;;;;;1.17;0.50;;;;;;;;;;5044523;28;20844;-69
2023/10/31 10:36:35;;;;;;;1.40;0.50;;;;;;;;;;5043501;28;20425;-66
2023/10/31 10:39:03;;;;;;;0.90;0.52;;;;;;;;;;5042854;28;20438;-68
2023/10/31 10:41:35;;;;;;;1.75;0.60;;;;;;;;;;5038949;28;20437;-68
2023/10/31 10:44:06;;;;;;;0.77;0.57;;;;;;;;;;5043380;28;20528;-68
2023/10/31 10:46:34;;;;;;;0.60;0.60;;;;;;;;;;5041929;28;22757;-68
2023/10/31 10:49:04;;;;;;;0.50;0.50;;;;;;;;;;5041731;28;20440;-67
2023/10/31 10:51:43;;;;;;;3.20;0.63;;;;;;;;;;5039968;28;20429;-67
2023/10/31 10:54:19;;;;;;;0.88;0.60;;;;;;;;;;5036527;28;20951;-68
2023/10/31 10:56:52;;;;;;;1.35;0.63;;;;;;;;;;5042502;28;20436;-67
2023/10/31 10:59:21;;;;;;;0.63;0.50;;;;;;;;;;5032233;28;20818;-67
2023/10/31 11:01:49;;;;;;;2.50;1.05;;;;;;;;;;5037444;28;20504;-67
2023/10/31 11:04:17;;;;;;;2.35;0.60;;;;;;;;;;5036271;28;20434;-67
2023/10/31 11:06:46;;;;;;;1.02;0.57;;;;;;;;;;5036511;28;20437;-67
2023/10/31 11:09:13;;;;;;;0.73;0.45;;;;;;;;;;5030608;28;20967;-67
2023/10/31 11:11:41;;;;;;;0.53;0.50;;;;;;;;;;5045435;28;20431;-67
2023/10/31 11:14:08;;;;;;;0.60;0.60;;;;;;;;;;5043642;28;20517;-67
2023/10/31 11:16:42;;;;;;;1.48;0.80;;;;;;;;;;5041527;28;20628;-67
2023/10/31 11:19:11;;;;;;;1.30;0.70;;;;;;;;;;5038716;28;20569;-67
2023/10/31 11:21:53;;;;;;;1.70;0.43;;;;;;;;;;5037114;28;20479;-67
2023/10/31 11:24:22;;;;;;;1.45;0.60;;;;;;;;;;5040002;28;20483;-67
2023/10/31 11:26:53;;;;;;;1.75;0.70;;;;;;;;;;5039166;28;20524;-66
2023/10/31 11:29:21;;;;;;;2.75;0.50;;;;;;;;;;5042006;28;20430;-67
2023/10/31 11:31:48;;;;;;;3.92;0.80;;;;;;;;;;5044538;28;20441;-67
2023/10/31 11:34:20;;;;;;;3.05;0.80;;;;;;;;;;5045269;28;21176;-67
2023/10/31 11:36:47;;;;;;;1.42;0.70;;;;;;;;;;5034800;28;20432;-67
2023/10/31 11:39:16;;;;;;;1.17;0.47;;;;;;;;;;5039132;28;20429;-67
2023/10/31 11:41:50;;;;;;;1.98;0.77;;;;;;;;;;5035072;28;20439;-67
2023/10/31 11:44:22;;;;;;;2.85;0.68;;;;;;;;;;5043540;28;20452;-67
2023/10/31 11:46:52;;;;;;;3.25;0.70;;;;;;;;;;5035049;28;20434;-68
2023/10/31 11:49:39;;;;;;;2.55;0.52;;;;;;;;;;5036611;28;20429;-67
2023/10/31 11:52:19;;;;;;;1.88;0.70;;;;;;;;;;5045229;28;20516;-68
2023/10/31 11:54:46;;;;;;;2.35;0.60;;;;;;;;;;5040354;28;20472;-67
2023/10/31 11:57:27;;;;;;;3.53;0.82;;;;;;;;;;5038960;28;20870;-67
2023/10/31 11:59:54;;;;;;;2.30;0.68;;;;;;;;;;5038811;28;20442;-67
2023/10/31 12:02:21;;;;;;;1.35;0.68;;;;;;;;;;5037557;28;20437;-67
2023/10/31 12:04:49;;;;;;;1.83;0.70;;;;;;;;;;5041227;28;20498;-68
2023/10/31 12:07:16;;;;;;;2.08;0.70;;;;;;;;;;5036038;28;20433;-68
2023/10/31 12:09:49;;;;;;;2.28;0.70;;;;;;;;;;5036553;28;20468;-67
2023/10/31 12:12:17;;;;;;;1.00;0.65;;;;;;;;;;5036651;28;20491;-68
2023/10/31 12:14:44;;;;;;;0.98;0.60;;;;;;;;;;5046034;28;20437;-67
2023/10/31 12:17:11;;;;;;;1.48;0.80;;;;;;;;;;5037254;28;20433;-67
2023/10/31 12:19:41;;;;;;;1.00;0.80;;;;;;;;;;5037179;28;20454;-69
2023/10/31 12:22:15;;;;;;;3.08;0.70;;;;;;;;;;5040061;28;20524;-67
2023/10/31 12:24:42;;;;;;;1.30;0.60;;;;;;;;;;5040776;28;20980;-68
2023/10/31 12:27:10;;;;;;;1.80;0.60;;;;;;;;;;5039736;28;20439;-67
2023/10/31 12:29:39;;;;;;;1.85;0.80;;;;;;;;;;5037302;28;20536;-67
2023/10/31 12:32:13;;;;;;;1.55;0.80;;;;;;;;;;5037842;28;21105;-67
2023/10/31 12:34:43;;;;;;;3.65;0.82;;;;;;;;;;5037512;28;20444;-66
2023/10/31 12:37:11;;;;;;;2.60;0.68;;;;;;;;;;5039198;28;20983;-67
2023/10/31 12:39:41;;;;;;;3.13;0.73;;;;;;;;;;5034212;28;20435;-67
2023/10/31 12:42:11;;;;;;;1.67;0.80;;;;;;;;;;5037883;28;20445;-66
2023/10/31 12:44:38;;;;;;;2.65;0.77;;;;;;;;;;5042577;28;20441;-67
2023/10/31 12:47:08;;;;;;;4.85;1.00;;;;;;;;;;5041139;28;20794;-67
2023/10/31 12:49:36;;;;;;;2.35;0.80;;;;;;;;;;5039967;28;20443;-66
2023/10/31 12:52:04;;;;;;;1.50;0.60;;;;;;;;;;5032395;28;20441;-67
2023/10/31 12:54:34;;;;;;;1.52;0.57;;;;;;;;;;5050241;28;20523;-66
2023/10/31 12:57:04;;;;;;;2.20;0.70;;;;;;;;;;5038365;28;20866;-66
2023/10/31 12:59:39;;;;;;;1.65;0.88;;;;;;;;;;5036660;28;20491;-66
2023/10/31 13:02:07;;;;;;;1.60;0.80;;;;;;;;;;5037534;28;20466;-66
2023/10/31 13:04:36;;;;;;;1.80;0.80;;;;;;;;;;5036129;28;20503;-65
2023/10/31 13:07:04;;;;;;;3.33;0.83;;;;;;;;;;5032392;28;20441;-65
2023/10/31 13:09:40;;;;;;;3.97;0.75;;;;;;;;;;5030322;28;20429;-66
2023/10/31 13:12:08;;;;;;;2.13;0.50;;;;;;;;;;5036187;28;20437;-66
2023/10/31 13:14:39;;;;;;;3.25;0.90;;;;;;;;;;5040112;28;20904;-65
2023/10/31 13:17:06;;;;;;;2.58;0.60;;;;;;;;;;5031937;28;20494;-66
2023/10/31 13:19:33;;;;;;;1.67;0.80;;;;;;;;;;5042725;28;20433;-67
2023/10/31 13:22:01;;;;;;;1.63;0.70;;;;;;;;;;5038018;28;20441;-66
2023/10/31 13:24:28;;;;;;;1.27;0.75;;;;;;;;;;5038970;28;20520;-67
2023/10/31 13:26:55;;;;;;;3.55;1.60;;;;;;;;;;5040670;28;20518;-66
2023/10/31 13:29:25;;;;;;;2.42;0.80;;;;;;;;;;5033197;28;20476;-66
2023/10/31 13:31:53;;;;;;;1.60;0.70;;;;;;;;;;5032630;28;20428;-66
2023/10/31 13:34:21;;;;;;;2.20;0.60;;;;;;;;;;5038578;28;20522;-66
2023/10/31 13:36:48;;;;;;;1.33;0.50;;;;;;;;;;5028641;28;20427;-67
2023/10/31 13:39:22;;;;;;;1.95;0.70;;;;;;;;;;5033171;28;20431;-66
2023/10/31 13:41:49;;;;;;;2.30;0.60;;;;;;;;;;5037772;28;21010;-66
2023/10/31 13:44:16;;;;;;;4.20;0.80;;;;;;;;;;5037476;28;20443;-66
2023/10/31 13:46:44;;;;;;;1.00;0.57;;;;;;;;;;5036212;28;20429;-67
2023/10/31 13:49:12;;;;;;;2.80;1.03;;;;;;;;;;5031040;28;20444;-66
2023/10/31 13:51:39;;;;;;;1.55;0.68;;;;;;;;;;5030048;28;20428;-66
2023/10/31 13:54:06;;;;;;;1.73;0.90;;;;;;;;;;5041288;28;20445;-67
2023/10/31 13:56:33;;;;;;;2.50;0.98;;;;;;;;;;5036414;28;20437;-67
2023/10/31 13:59:02;;;;;;;1.90;0.68;;;;;;;;;;5035405;28;20464;-67
2023/10/31 14:01:29;;;;;;;2.40;0.80;;;;;;;;;;5040599;28;20425;-68
2023/10/31 14:03:56;;;;;;;2.33;0.70;;;;;;;;;;5037415;28;20515;-67
2023/10/31 14:06:29;;;;;;;1.20;0.53;;;;;;;;;;5040116;28;20453;-67
2023/10/31 14:08:58;;;;;;;2.65;0.70;;;;;;;;;;5037873;28;20439;-67
2023/10/31 14:11:25;;;;;;;2.28;0.77;;;;;;;;;;5034345;28;20427;-66
2023/10/31 14:13:52;;;;;;;3.28;0.70;;;;;;;;;;5032484;28;20531;-67
2023/10/31 14:16:19;;;;;;;1.80;0.70;;;;;;;;;;5038032;28;20572;-67
2023/10/31 14:18:47;;;;;;;1.60;0.70;;;;;;;;;;5032835;28;20427;-68
2023/10/31 14:21:15;;;;;;;1.73;0.55;;;;;;;;;;5033455;28;20483;-67
2023/10/31 14:23:44;;;;;;;1.60;0.70;;;;;;;;;;5031841;28;20476;-67
2023/10/31 14:26:13;;;;;;;1.95;0.90;;;;;;;;;;5032367;28;20464;-67
2023/10/31 14:28:41;;;;;;;0.80;0.50;;;;;;;;;;5035704;28;20776;-67
2023/10/31 14:31:10;;;;;;;3.50;0.63;;;;;;;;;;5041537;28;20437;-67
2023/10/31 14:33:37;;;;;;;3.20;0.70;;;;;;;;;;5045150;28;20514;-67
2023/10/31 14:36:05;;;;;;;2.90;0.60;;;;;;;;;;5040725;28;20514;-67
2023/10/31 14:38:32;;;;;;;1.20;0.52;;;;;;;;;;5037171;28;20469;-67
2023/10/31 14:40:59;;;;;;;2.25;0.60;;;;;;;;;;5033780;28;20441;-67
2023/10/31 14:43:26;;;;;;;1.95;1.00;;;;;;;;;;5037212;28;20433;-67
2023/10/31 14:45:54;;;;;;;0.77;0.47;;;;;;;;;;5036546;28;20430;-67
2023/10/31 14:48:21;;;;;;;1.27;0.50;;;;;;;;;;5039194;28;20522;-68
2023/10/31 14:50:50;;;;;;;0.68;0.40;;;;;;;;;;5033336;28;20857;-67